Oban — PDWJ — position and weather

sailwx.info

Track history (hours):
 
Tides and Currents Weather Stations Pressure Air Temp Water Temp Dewpoint Dewpoint Depression Visibility Wind Speed Wind Dir Waves Ship Positions

Oban

Last reported at 2017-Apr-22 08:56 UTC. Time now 2017-Apr-27 07:14 UTC.
Position N 54°08' E 009°20'.

Length 39 m; draft 2.8 m.

Type: Sailing vessel. MMSI: 246085000.

Date/timePositionNaut miles runAvg speedWind from/ knotsBaromVisibWave heightAir tempDewpointWater temp
2017-Apr-22 08:56N 54°08' E 009°20'3 6.3
2017-Apr-22 08:30N 54°05' E 009°19'3 6.5
2017-Apr-22 08:00N 54°02' E 009°18'3 6.5
2017-Apr-22 07:31N 53°59' E 009°16'3 6.8
2017-Apr-22 07:00N 53°56' E 009°13'3 5.4
2017-Apr-22 06:30N 53°54' E 009°09'0 0.0
2017-Apr-22 05:57N 53°54' E 009°09'0 0.0
2017-Apr-22 05:30N 53°54' E 009°09'0 0.0
2017-Apr-22 05:00N 53°54' E 009°09'0 0.0
2017-Apr-22 04:27N 53°54' E 009°09'0 0.0
2017-Apr-22 04:00N 53°54' E 009°09'0 0.0
2017-Apr-22 03:30N 53°54' E 009°09'0 0.0
2017-Apr-22 03:00N 53°54' E 009°09'0 0.0
2017-Apr-22 02:27N 53°54' E 009°09'0 0.0
2017-Apr-22 02:00N 53°54' E 009°09'0 0.0
2017-Apr-22 01:30N 53°54' E 009°09'0 0.0
2017-Apr-22 00:57N 53°54' E 009°09'0 0.0
2017-Apr-22 00:27N 53°54' E 009°09'0 0.0
2017-Apr-22 00:00N 53°54' E 009°09'0 0.0
2017-Apr-21 23:30N 53°54' E 009°09'0 0.0
2017-Apr-21 23:00N 53°54' E 009°09'0 0.0
2017-Apr-21 22:30N 53°54' E 009°09'0 0.0
2017-Apr-21 22:00N 53°54' E 009°09'0 0.0
2017-Apr-21 21:27N 53°54' E 009°09'0 0.0
2017-Apr-21 21:00N 53°54' E 009°09'0 0.0
2017-Apr-21 20:30N 53°54' E 009°09'0 0.0
2017-Apr-21 20:00N 53°54' E 009°09'0 0.0
2017-Apr-21 19:30N 53°54' E 009°09'0 0.0
2017-Apr-21 19:00N 53°54' E 009°09'0 0.0
2017-Apr-21 18:30N 53°54' E 009°09'0 0.0
2017-Apr-21 18:00N 53°54' E 009°09'0 0.0
2017-Apr-21 17:30N 53°54' E 009°09'0 0.0
2017-Apr-21 17:00N 53°54' E 009°09'1 1.5
2017-Apr-21 16:30N 53°53' E 009°09'4 8.1
2017-Apr-21 16:01N 53°52' E 009°02'4 7.1
2017-Apr-21 15:31N 53°51' E 008°57'4 7.2
2017-Apr-21 15:00N 53°50' E 008°51'3 6.5
2017-Apr-21 14:31N 53°51' E 008°45'7 6.6
2017-Apr-21 13:30N 53°56' E 008°39'4 7.3
2017-Apr-21 13:00N 53°58' E 008°33'3 6.9
2017-Apr-21 12:30N 53°59' E 008°27'3 6.8
2017-Apr-21 12:00N 53°59' E 008°22'4 8.0
2017-Apr-21 11:27N 53°59' E 008°14'4 7.9
2017-Apr-21 10:58N 53°59' E 008°08'4 7.7
2017-Apr-21 10:27N 53°58' E 008°01'3 7.6
2017-Apr-21 10:00N 53°57' E 007°56'111 7.3
2017-Apr-20 18:47N 53°22' E 004°58'3 7.6
2017-Apr-20 18:27N 53°19' E 004°60'2 5.4
2017-Apr-20 18:00N 53°19' E 005°04'3 5.6
2017-Apr-20 17:30N 53°19' E 005°08'4 7.6
2017-Apr-20 17:00N 53°16' E 005°10'3 6.8
2017-Apr-20 16:30N 53°14' E 005°14'3 6.3
2017-Apr-20 16:00N 53°12' E 005°18'3 6.2
2017-Apr-20 15:30N 53°11' E 005°23'3 6.4
2017-Apr-20 15:00N 53°08' E 005°22'4 3.9
2017-Apr-20 14:00N 53°04' E 005°20'2 3.2
2017-Apr-20 13:30N 53°02' E 005°21'4 7.5
2017-Apr-20 13:00N 52°59' E 005°19'4 8.3
2017-Apr-20 12:30N 52°55' E 005°19'4 7.6
2017-Apr-20 12:00N 52°51' E 005°19'4 7.2
2017-Apr-20 11:30N 52°47' E 005°20'4 7.1
2017-Apr-20 11:00N 52°44' E 005°23'4 7.9
2017-Apr-20 10:30N 52°42' E 005°28'4 7.7
2017-Apr-20 10:00N 52°39' E 005°33'4 7.4
2017-Apr-20 09:30N 52°37' E 005°37'2 4.9
2017-Apr-20 09:00N 52°36' E 005°41'3 6.8
2017-Apr-20 08:30N 52°35' E 005°47'3 6.6
2017-Apr-20 08:00N 52°35' E 005°52'2 4.4
2017-Apr-20 07:30N 52°34' E 005°55'0 0.0
2017-Apr-20 07:00N 52°34' E 005°55'0 0.0
2017-Apr-20 06:30N 52°34' E 005°55'0 0.0
2017-Apr-20 06:00N 52°34' E 005°55'0 0.0
2017-Apr-20 05:31N 52°34' E 005°55'0 0.0
2017-Apr-20 05:00N 52°34' E 005°55'0 0.0
2017-Apr-20 04:30N 52°34' E 005°55'0 0.0
2017-Apr-20 04:01N 52°34' E 005°55'0 0.0
2017-Apr-20 03:30N 52°34' E 005°55'0 0.0
2017-Apr-20 03:00N 52°34' E 005°55'0 0.0
2017-Apr-20 02:30N 52°34' E 005°55'0 0.0
2017-Apr-20 02:00N 52°34' E 005°55'0 0.0
2017-Apr-20 01:30N 52°34' E 005°55'0 0.0
2017-Apr-20 01:00N 52°34' E 005°55'0 0.0
2017-Apr-20 00:30N 52°34' E 005°55'0 0.0
2017-Apr-20 00:00N 52°34' E 005°55'0 0.0
2017-Apr-19 23:30N 52°34' E 005°55'0 0.0
2017-Apr-19 23:00N 52°34' E 005°55'0 0.0
2017-Apr-19 22:30N 52°34' E 005°55'0 0.0
2017-Apr-19 22:00N 52°34' E 005°55'0 0.0
2017-Apr-19 21:30N 52°34' E 005°55'0 0.0
2017-Apr-19 21:00N 52°34' E 005°55'0 0.0
2017-Apr-19 20:30N 52°34' E 005°55'0 0.0
2017-Apr-19 20:00N 52°34' E 005°55'0 0.0
2017-Apr-19 19:30N 52°34' E 005°55'0 0.0
2017-Apr-19 19:00N 52°34' E 005°55'0 0.0
2017-Apr-19 18:30N 52°34' E 005°55'0 0.0
2017-Apr-19 18:00N 52°34' E 005°55'0 0.0
2017-Apr-19 17:30N 52°34' E 005°55'0 0.0
2017-Apr-19 17:00N 52°34' E 005°55'0 0.0
2017-Apr-19 16:30N 52°34' E 005°55'0 0.0
2017-Apr-19 16:00N 52°34' E 005°55'0 0.0
2017-Apr-19 15:30N 52°34' E 005°55'0 0.0
2017-Apr-19 15:00N 52°34' E 005°55'0 0.0
2017-Apr-19 14:30N 52°34' E 005°55'0 0.0
2017-Apr-19 13:30N 52°34' E 005°55'0 0.0
2017-Apr-19 13:00N 52°34' E 005°55'0 0.0
2017-Apr-19 12:30N 52°34' E 005°55'0 0.0
2017-Apr-19 12:00N 52°34' E 005°55'0 0.0
2017-Apr-19 11:30N 52°34' E 005°55'0 0.0
2017-Apr-19 11:00N 52°34' E 005°55'0 0.0
2017-Apr-19 10:30N 52°34' E 005°55'0 0.0
2017-Apr-19 10:00N 52°34' E 005°55'0 0.0
2017-Apr-19 09:30N 52°34' E 005°55'0 0.0
2017-Apr-19 09:00N 52°34' E 005°55'0 0.0
2017-Apr-19 08:30N 52°34' E 005°55'0 0.0
2017-Apr-19 08:00N 52°34' E 005°55'0 0.0
2017-Apr-19 07:30N 52°34' E 005°55'0 0.0
2017-Apr-19 07:00N 52°34' E 005°55'0 0.0
2017-Apr-19 06:30N 52°34' E 005°55'0 0.0
2017-Apr-19 06:00N 52°34' E 005°55'0 0.0
2017-Apr-19 05:30N 52°34' E 005°55'0 0.0
2017-Apr-19 05:00N 52°34' E 005°55'0 0.0
2017-Apr-19 04:30N 52°34' E 005°55'0 0.0
2017-Apr-19 04:00N 52°34' E 005°55'0 0.0
2017-Apr-19 03:30N 52°34' E 005°55'0 0.0
2017-Apr-19 03:00N 52°34' E 005°55'0 0.0
2017-Apr-19 02:30N 52°34' E 005°55'0 0.0
2017-Apr-19 02:00N 52°34' E 005°55'0 0.0
2017-Apr-19 01:30N 52°34' E 005°55'0 0.0
2017-Apr-19 01:00N 52°34' E 005°55'0 0.0
2017-Apr-19 00:30N 52°34' E 005°55'0 0.0
2017-Apr-19 00:00N 52°34' E 005°55'0 0.0
2017-Apr-18 23:30N 52°34' E 005°55'0 0.0
2017-Apr-18 23:00N 52°34' E 005°55'0 0.0
2017-Apr-18 22:30N 52°34' E 005°55'0 0.0
2017-Apr-18 22:00N 52°34' E 005°55'0 0.0
2017-Apr-18 21:30N 52°34' E 005°55'0 0.0
2017-Apr-18 21:00N 52°34' E 005°55'0 0.0
2017-Apr-18 20:30N 52°34' E 005°55'0 0.0
2017-Apr-18 20:00N 52°34' E 005°55'0 0.0
2017-Apr-18 19:30N 52°34' E 005°55'0 0.0
2017-Apr-18 19:00N 52°34' E 005°55'0 0.0
2017-Apr-18 18:30N 52°34' E 005°55'0 0.0
2017-Apr-18 18:00N 52°34' E 005°55'0 0.0
2017-Apr-18 17:30N 52°34' E 005°55'0 0.0
2017-Apr-18 17:00N 52°34' E 005°55'0 0.0
2017-Apr-18 16:30N 52°34' E 005°55'0 0.0
2017-Apr-18 16:00N 52°34' E 005°55'0 0.0
2017-Apr-18 15:30N 52°34' E 005°55'0 0.0
2017-Apr-18 15:00N 52°34' E 005°55'0 0.0
2017-Apr-18 14:30N 52°34' E 005°55'0 0.0
2017-Apr-18 13:30N 52°34' E 005°55'0 0.0
2017-Apr-18 13:00N 52°34' E 005°55'0 0.0
2017-Apr-18 12:30N 52°34' E 005°55'0 0.0
2017-Apr-18 12:00N 52°34' E 005°55'0 0.0
2017-Apr-18 11:30N 52°34' E 005°55'0 0.0
2017-Apr-18 11:00N 52°34' E 005°55'0 0.0
2017-Apr-18 10:30N 52°34' E 005°55'0 0.0
2017-Apr-18 10:00N 52°34' E 005°55'0 0.0
2017-Apr-18 09:30N 52°34' E 005°55'0 0.0
2017-Apr-18 09:00N 52°34' E 005°55'0 0.0
2017-Apr-18 08:30N 52°34' E 005°55'0 0.0
2017-Apr-18 08:00N 52°34' E 005°55'0 0.0
2017-Apr-18 07:30N 52°34' E 005°55'0 0.0
2017-Apr-18 07:00N 52°34' E 005°55'0 0.0
2017-Apr-18 06:30N 52°34' E 005°55'0 0.0
2017-Apr-18 06:00N 52°34' E 005°55'0 0.0
2017-Apr-18 05:30N 52°34' E 005°55'0 0.0
2017-Apr-18 05:00N 52°34' E 005°55'0 0.0
2017-Apr-18 04:30N 52°34' E 005°55'0 0.0
2017-Apr-18 04:01N 52°34' E 005°55'0 0.0
2017-Apr-18 03:30N 52°34' E 005°55'0 0.0
2017-Apr-18 03:00N 52°34' E 005°55'0 0.0
2017-Apr-18 02:30N 52°34' E 005°55'0 0.0
2017-Apr-18 02:00N 52°34' E 005°55'0 0.0
2017-Apr-18 01:30N 52°34' E 005°55'0 0.0
2017-Apr-18 01:00N 52°34' E 005°55'0 0.0
2017-Apr-18 00:30N 52°34' E 005°55'0 0.0
2017-Apr-18 00:00N 52°34' E 005°55'0 0.0
2017-Apr-17 23:30N 52°34' E 005°55'0 0.0
2017-Apr-17 23:00N 52°34' E 005°55'0 0.0
2017-Apr-17 22:30N 52°34' E 005°55'0 0.0
2017-Apr-17 22:00N 52°34' E 005°55'0 0.0
2017-Apr-17 21:30N 52°34' E 005°55'0 0.0
2017-Apr-17 21:00N 52°34' E 005°55'0 0.0
2017-Apr-17 20:30N 52°34' E 005°55'0 0.0
2017-Apr-17 20:00N 52°34' E 005°55'0 0.0
2017-Apr-17 19:30N 52°34' E 005°55'0 0.0
2017-Apr-17 19:01N 52°34' E 005°55'0 0.0
2017-Apr-17 18:30N 52°34' E 005°55'0 0.0
2017-Apr-17 18:00N 52°34' E 005°55'0 0.0
2017-Apr-17 17:31N 52°34' E 005°55'0 0.0
2017-Apr-17 17:00N 52°34' E 005°55'0 0.0
2017-Apr-17 16:30N 52°34' E 005°55'0 0.0
2017-Apr-17 16:00N 52°34' E 005°55'0 0.0
2017-Apr-17 15:30N 52°34' E 005°55'0 0.0
2017-Apr-17 15:00N 52°34' E 005°55'0 0.0
2017-Apr-17 14:30N 52°34' E 005°55'0 0.0
2017-Apr-17 13:30N 52°34' E 005°55'0 0.0
2017-Apr-17 13:01N 52°34' E 005°55'0 0.0
2017-Apr-17 12:30N 52°34' E 005°55'0 0.0
2017-Apr-17 12:00N 52°34' E 005°55'0 0.0
2017-Apr-17 11:30N 52°34' E 005°55'0 0.0
2017-Apr-17 11:00N 52°34' E 005°55'0 0.0
2017-Apr-17 10:30N 52°34' E 005°55'0 0.0
2017-Apr-17 10:00N 52°34' E 005°55'0 0.0
2017-Apr-17 09:30N 52°34' E 005°55'0 0.0
2017-Apr-17 09:00N 52°34' E 005°55'0 0.0
2017-Apr-17 08:30N 52°34' E 005°55'0 0.0
2017-Apr-17 08:00N 52°34' E 005°55'0 0.0
2017-Apr-17 07:30N 52°34' E 005°55'0 0.0
2017-Apr-17 07:01N 52°34' E 005°55'0 0.0
2017-Apr-17 06:30N 52°34' E 005°55'0 0.0
2017-Apr-17 06:00N 52°34' E 005°55'0 0.0
2017-Apr-17 05:30N 52°34' E 005°55'0 0.0
2017-Apr-17 05:00N 52°34' E 005°55'0 0.0
2017-Apr-17 04:30N 52°34' E 005°55'0 0.0
2017-Apr-17 04:00N 52°34' E 005°55'0 0.0
2017-Apr-17 03:30N 52°34' E 005°55'0 0.0
2017-Apr-17 03:00N 52°34' E 005°55'0 0.0
2017-Apr-17 02:30N 52°34' E 005°55'0 0.0
2017-Apr-17 02:00N 52°34' E 005°55'0 0.0
2017-Apr-17 01:30N 52°34' E 005°55'0 0.0
2017-Apr-17 01:00N 52°34' E 005°55'0 0.0
2017-Apr-17 00:30N 52°34' E 005°55'0 0.0
2017-Apr-17 00:00N 52°34' E 005°55'0 0.0
2017-Apr-16 23:30N 52°34' E 005°55'0 0.0
2017-Apr-16 23:00N 52°34' E 005°55'0 0.0
2017-Apr-16 22:30N 52°34' E 005°55'0 0.0
2017-Apr-16 22:00N 52°34' E 005°55'0 0.0
2017-Apr-16 21:30N 52°34' E 005°55'0 0.0
2017-Apr-16 21:00N 52°34' E 005°55'0 0.0
2017-Apr-16 20:30N 52°34' E 005°55'0 0.0
2017-Apr-16 20:00N 52°34' E 005°55'0 0.0
2017-Apr-16 19:30N 52°34' E 005°55'0 0.0
2017-Apr-16 19:01N 52°34' E 005°55'0 0.0
2017-Apr-16 18:30N 52°34' E 005°55'0 0.0
2017-Apr-16 18:00N 52°34' E 005°55'0 0.0
2017-Apr-16 17:30N 52°34' E 005°55'0 0.0
2017-Apr-16 17:00N 52°34' E 005°55'0 0.0
2017-Apr-16 16:30N 52°34' E 005°55'0 0.0
2017-Apr-16 16:00N 52°34' E 005°55'0 0.0
2017-Apr-16 15:30N 52°34' E 005°55'0 0.0
2017-Apr-16 15:00N 52°34' E 005°55'0 0.0
2017-Apr-16 14:00N 52°34' E 005°55'0 0.0
2017-Apr-16 13:30N 52°34' E 005°55'0 0.0
2017-Apr-16 13:00N 52°34' E 005°55'0 0.0
2017-Apr-16 12:30N 52°34' E 005°55'0 0.0
2017-Apr-16 12:00N 52°34' E 005°55'0 0.0
2017-Apr-16 11:30N 52°34' E 005°55'0 0.0
2017-Apr-16 11:00N 52°34' E 005°55'0 0.0
2017-Apr-16 10:30N 52°34' E 005°55'0 0.0
2017-Apr-16 10:00N 52°34' E 005°55'0 0.0
2017-Apr-16 09:30N 52°34' E 005°55'0 0.0
2017-Apr-16 09:00N 52°34' E 005°55'0 0.0
2017-Apr-16 08:30N 52°34' E 005°55'0 0.0
2017-Apr-16 08:00N 52°34' E 005°55'0 0.0
2017-Apr-16 07:30N 52°34' E 005°55'0 0.0
2017-Apr-16 07:00N 52°34' E 005°55'0 0.0
2017-Apr-16 06:30N 52°34' E 005°55'0 0.0
2017-Apr-16 06:00N 52°34' E 005°55'0 0.0
2017-Apr-16 05:30N 52°34' E 005°55'0 0.0
2017-Apr-16 05:00N 52°34' E 005°55'0 0.0
2017-Apr-16 04:30N 52°34' E 005°55'0 0.0
2017-Apr-16 04:00N 52°34' E 005°55'0 0.0
2017-Apr-16 03:30N 52°34' E 005°55'0 0.0
2017-Apr-16 03:00N 52°34' E 005°55'0 0.0
2017-Apr-16 02:30N 52°34' E 005°55'0 0.0
2017-Apr-16 02:01N 52°34' E 005°55'0 0.0
2017-Apr-16 01:30N 52°34' E 005°55'0 0.0
2017-Apr-16 01:00N 52°34' E 005°55'0 0.0
2017-Apr-16 00:30N 52°34' E 005°55'0 0.0
2017-Apr-16 00:00N 52°34' E 005°55'0 0.0
2017-Apr-15 23:31N 52°34' E 005°55'0 0.0
2017-Apr-15 23:00N 52°34' E 005°55'0 0.0
2017-Apr-15 22:30N 52°34' E 005°55'0 0.0
2017-Apr-15 22:00N 52°34' E 005°55'0 0.0
2017-Apr-15 21:30N 52°34' E 005°55'0 0.0
2017-Apr-15 21:00N 52°34' E 005°55'0 0.0
2017-Apr-15 20:30N 52°34' E 005°55'0 0.0
2017-Apr-15 20:00N 52°34' E 005°55'0 0.0
2017-Apr-15 19:30N 52°34' E 005°55'0 0.0
2017-Apr-15 19:00N 52°34' E 005°55'0 0.0
2017-Apr-15 18:30N 52°34' E 005°55'0 0.0
2017-Apr-15 18:00N 52°34' E 005°55'0 0.0
2017-Apr-15 17:30N 52°34' E 005°55'0 0.0
2017-Apr-15 17:00N 52°34' E 005°55'0 0.0
2017-Apr-15 16:30N 52°34' E 005°55'0 0.0
2017-Apr-15 16:00N 52°34' E 005°55'0 0.0
2017-Apr-15 15:30N 52°34' E 005°55'0 0.0
2017-Apr-15 15:00N 52°34' E 005°55'0 0.0
2017-Apr-15 14:30N 52°34' E 005°55'0 0.0
2017-Apr-15 13:30N 52°34' E 005°55'0 0.0
2017-Apr-15 13:01N 52°34' E 005°55'0 0.0
2017-Apr-15 12:30N 52°34' E 005°55'0 0.0
2017-Apr-15 12:00N 52°34' E 005°55'0 0.0
2017-Apr-15 11:30N 52°34' E 005°55'0 0.0
2017-Apr-15 11:00N 52°34' E 005°55'0 0.0
2017-Apr-15 10:30N 52°34' E 005°55'0 0.0
2017-Apr-15 10:00N 52°34' E 005°55'0 0.0
2017-Apr-15 09:30N 52°34' E 005°55'0 0.0
2017-Apr-15 09:00N 52°34' E 005°55'0 0.0
2017-Apr-15 08:30N 52°34' E 005°55'0 0.0
2017-Apr-15 08:00N 52°34' E 005°55'0 0.0
2017-Apr-15 07:30N 52°34' E 005°55'0 0.0
2017-Apr-15 07:00N 52°34' E 005°55'0 0.0
2017-Apr-15 06:30N 52°34' E 005°55'0 0.0
2017-Apr-15 06:00N 52°34' E 005°55'0 0.0
2017-Apr-15 05:30N 52°34' E 005°55'0 0.0
2017-Apr-15 05:00N 52°34' E 005°55'0 0.0
2017-Apr-15 04:30N 52°34' E 005°55'0 0.0
2017-Apr-15 04:00N 52°34' E 005°55'0 0.0
2017-Apr-15 03:30N 52°34' E 005°55'0 0.0
2017-Apr-15 03:00N 52°34' E 005°55'0 0.0
2017-Apr-15 02:30N 52°34' E 005°55'0 0.0
2017-Apr-15 02:00N 52°34' E 005°55'0 0.0
2017-Apr-15 01:30N 52°34' E 005°55'0 0.0
2017-Apr-15 01:00N 52°34' E 005°55'0 0.0
2017-Apr-15 00:30N 52°34' E 005°55'0 0.0
2017-Apr-15 00:00N 52°34' E 005°55'0 0.0
2017-Apr-14 23:30N 52°34' E 005°55'0 0.0
2017-Apr-14 23:00N 52°34' E 005°55'0 0.0
2017-Apr-14 22:30N 52°34' E 005°55'0 0.0
2017-Apr-14 22:00N 52°34' E 005°55'0 0.0
2017-Apr-14 21:30N 52°34' E 005°55'0 0.0
2017-Apr-14 21:00N 52°34' E 005°55'0 0.0
2017-Apr-14 20:30N 52°34' E 005°55'0 0.0
2017-Apr-14 20:00N 52°34' E 005°55'0 0.0
2017-Apr-14 19:30N 52°34' E 005°55'0 0.0
2017-Apr-14 19:00N 52°34' E 005°55'0 0.0
2017-Apr-14 18:30N 52°34' E 005°55'0 0.0
2017-Apr-14 18:00N 52°34' E 005°55'0 0.0
2017-Apr-14 17:30N 52°34' E 005°55'0 0.0
2017-Apr-14 17:00N 52°34' E 005°55'0 0.0
2017-Apr-14 16:30N 52°34' E 005°55'0 0.0
2017-Apr-14 16:00N 52°34' E 005°55'0 0.0
2017-Apr-14 15:30N 52°34' E 005°55'0 0.0
2017-Apr-14 15:00N 52°34' E 005°55'0 0.0
2017-Apr-14 14:30N 52°34' E 005°55'0 0.0
2017-Apr-14 13:30N 52°34' E 005°55'0 0.0
2017-Apr-14 13:00N 52°34' E 005°55'0 0.0
2017-Apr-14 12:30N 52°34' E 005°55'0 0.0
2017-Apr-14 12:00N 52°34' E 005°55'0 0.0
2017-Apr-14 11:30N 52°34' E 005°55'0 0.1
2017-Apr-14 11:00N 52°34' E 005°55'0 0.0
2017-Apr-14 10:30N 52°34' E 005°55'0 0.0
2017-Apr-14 10:00N 52°34' E 005°55'0 0.0
2017-Apr-14 09:30N 52°34' E 005°55'0 0.0
2017-Apr-14 09:00N 52°34' E 005°55'0 0.0
2017-Apr-14 08:30N 52°34' E 005°55'0 0.0
2017-Apr-14 08:01N 52°34' E 005°55'0 0.0
2017-Apr-14 07:30N 52°34' E 005°55'0 0.0
2017-Apr-14 07:00N 52°34' E 005°55'0 0.0
2017-Apr-14 06:30N 52°34' E 005°55'0 0.0
2017-Apr-14 06:01N 52°34' E 005°55'0 0.0
2017-Apr-14 05:31N 52°34' E 005°55'0 0.0
2017-Apr-14 05:00N 52°34' E 005°55'0 0.0
2017-Apr-14 04:31N 52°34' E 005°55'0 0.0
2017-Apr-14 04:00N 52°34' E 005°55'0 0.0
2017-Apr-14 03:30N 52°34' E 005°55'0 0.0
2017-Apr-14 03:00N 52°34' E 005°55'0 0.0
2017-Apr-14 02:30N 52°34' E 005°55'0 0.0
2017-Apr-14 02:00N 52°34' E 005°55'0 0.0
2017-Apr-14 01:30N 52°34' E 005°55'0 0.0
2017-Apr-14 01:00N 52°34' E 005°55'0 0.0
2017-Apr-14 00:30N 52°34' E 005°55'0 0.0
2017-Apr-14 00:00N 52°34' E 005°55'0 0.0
2017-Apr-13 23:30N 52°34' E 005°55'0 0.0
2017-Apr-13 23:00N 52°34' E 005°55'0 0.0
2017-Apr-13 22:30N 52°34' E 005°55'0 0.0
2017-Apr-13 22:00N 52°34' E 005°55'0 0.0
2017-Apr-13 21:30N 52°34' E 005°55'0 0.0
2017-Apr-13 21:00N 52°34' E 005°55'0 0.0
2017-Apr-13 20:30N 52°34' E 005°55'0 0.0
2017-Apr-13 20:00N 52°34' E 005°55'0 0.0
2017-Apr-13 19:30N 52°34' E 005°55'0 0.0
2017-Apr-13 19:00N 52°34' E 005°55'0 0.0
2017-Apr-13 18:30N 52°34' E 005°55'0 0.0
2017-Apr-13 18:00N 52°34' E 005°55'0 0.0
2017-Apr-13 17:30N 52°34' E 005°55'0 0.0
2017-Apr-13 17:00N 52°34' E 005°55'0 0.0
2017-Apr-13 16:30N 52°34' E 005°55'0 0.0
2017-Apr-13 16:00N 52°34' E 005°55'0 0.0
2017-Apr-13 15:30N 52°34' E 005°55'0 0.0
2017-Apr-13 15:00N 52°34' E 005°55'0 0.0
2017-Apr-13 14:00N 52°34' E 005°55'0 0.0
2017-Apr-13 13:30N 52°34' E 005°55'0 0.0
2017-Apr-13 13:00N 52°34' E 005°55'0 0.0
2017-Apr-13 12:30N 52°34' E 005°55'0 0.0
2017-Apr-13 12:00N 52°34' E 005°55'0 0.0
2017-Apr-13 11:30N 52°34' E 005°55'0 0.0
2017-Apr-13 11:00N 52°34' E 005°55'0 0.0
2017-Apr-13 10:30N 52°34' E 005°55'0 0.0
2017-Apr-13 10:00N 52°34' E 005°55'0 0.0
2017-Apr-13 09:31N 52°34' E 005°55'0 0.0
2017-Apr-13 09:00N 52°34' E 005°55'0 0.0
2017-Apr-13 08:30N 52°34' E 005°55'0 0.0
2017-Apr-13 08:00N 52°34' E 005°55'0 0.0
2017-Apr-13 07:30N 52°34' E 005°55'0 0.0
2017-Apr-13 07:00N 52°34' E 005°55'0 0.0
2017-Apr-13 06:30N 52°34' E 005°55'0 0.0
2017-Apr-13 06:00N 52°34' E 005°55'0 0.0
2017-Apr-13 05:30N 52°34' E 005°55'0 0.0
2017-Apr-13 05:00N 52°34' E 005°55'0 0.0
2017-Apr-13 04:30N 52°34' E 005°55'0 0.0
2017-Apr-13 04:00N 52°34' E 005°55'0 0.0
2017-Apr-13 03:30N 52°34' E 005°55'0 0.0
2017-Apr-13 03:00N 52°34' E 005°55'0 0.0
2017-Apr-13 02:30N 52°34' E 005°55'0 0.0
2017-Apr-13 02:00N 52°34' E 005°55'0 0.0
2017-Apr-13 01:30N 52°34' E 005°55'0 0.0
2017-Apr-13 01:00N 52°34' E 005°55'0 0.0
2017-Apr-13 00:30N 52°34' E 005°55'0 0.0
2017-Apr-13 00:00N 52°34' E 005°55'0 0.0
2017-Apr-12 23:30N 52°34' E 005°55'0 0.0
2017-Apr-12 23:00N 52°34' E 005°55'0 0.0
2017-Apr-12 22:30N 52°34' E 005°55'0 0.0
2017-Apr-12 22:00N 52°34' E 005°55'0 0.0
2017-Apr-12 21:31N 52°34' E 005°55'0 0.0
2017-Apr-12 21:00N 52°34' E 005°55'0 0.0
2017-Apr-12 20:30N 52°34' E 005°55'0 0.0
2017-Apr-12 20:00N 52°34' E 005°55'0 0.0
2017-Apr-12 19:30N 52°34' E 005°55'0 0.0
2017-Apr-12 19:00N 52°34' E 005°55'0 0.0
2017-Apr-12 18:30N 52°34' E 005°55'0 0.0
2017-Apr-12 18:00N 52°34' E 005°55'0 0.0
2017-Apr-12 17:30N 52°34' E 005°55'0 0.0
2017-Apr-12 17:00N 52°34' E 005°55'0 0.0
2017-Apr-12 16:30N 52°34' E 005°55'0 0.0
2017-Apr-12 16:00N 52°34' E 005°55'0 0.0
2017-Apr-12 15:30N 52°34' E 005°55'0 0.0
2017-Apr-12 15:00N 52°34' E 005°55'0 0.0
2017-Apr-12 14:30N 52°34' E 005°55'0 0.0
2017-Apr-12 13:31N 52°34' E 005°55'0 0.0
2017-Apr-12 13:00N 52°34' E 005°55'0 0.0
2017-Apr-12 12:31N 52°34' E 005°55'0 0.0
2017-Apr-12 12:00N 52°34' E 005°55'0 0.0
2017-Apr-12 11:30N 52°34' E 005°55'0 0.0
2017-Apr-12 11:00N 52°34' E 005°55'0 0.0
2017-Apr-12 10:30N 52°34' E 005°55'0 0.0
2017-Apr-12 10:01N 52°34' E 005°55'0 0.0
2017-Apr-12 09:30N 52°34' E 005°55'0 0.0
2017-Apr-12 09:00N 52°34' E 005°55'  
Track history (hours):
 
Tides and Currents Weather Stations Pressure Air Temp Water Temp Dewpoint Dewpoint Depression Visibility Wind Speed Wind Dir Waves Ship Positions

Oban

Last reported at 2017-Apr-22 08:56 UTC. Time now 2017-Apr-27 07:14 UTC.
Position N 54°08' E 009°20'.

Length 39 m; draft 2.8 m.

Type: Sailing vessel. MMSI: 246085000.

Date/timePositionNaut miles runAvg speedWind from/ knotsBaromVisibWave heightAir tempDewpointWater temp
2017-Apr-22 08:56N 54°08' E 009°20'3 6.3
2017-Apr-22 08:30N 54°05' E 009°19'3 6.5
2017-Apr-22 08:00N 54°02' E 009°18'3 6.5
2017-Apr-22 07:31N 53°59' E 009°16'3 6.8
2017-Apr-22 07:00N 53°56' E 009°13'3 5.4
2017-Apr-22 06:30N 53°54' E 009°09'0 0.0
2017-Apr-22 05:57N 53°54' E 009°09'0 0.0
2017-Apr-22 05:30N 53°54' E 009°09'0 0.0
2017-Apr-22 05:00N 53°54' E 009°09'0 0.0
2017-Apr-22 04:27N 53°54' E 009°09'0 0.0
2017-Apr-22 04:00N 53°54' E 009°09'0 0.0
2017-Apr-22 03:30N 53°54' E 009°09'0 0.0
2017-Apr-22 03:00N 53°54' E 009°09'0 0.0
2017-Apr-22 02:27N 53°54' E 009°09'0 0.0
2017-Apr-22 02:00N 53°54' E 009°09'0 0.0
2017-Apr-22 01:30N 53°54' E 009°09'0 0.0
2017-Apr-22 00:57N 53°54' E 009°09'0 0.0
2017-Apr-22 00:27N 53°54' E 009°09'0 0.0
2017-Apr-22 00:00N 53°54' E 009°09'0 0.0
2017-Apr-21 23:30N 53°54' E 009°09'0 0.0
2017-Apr-21 23:00N 53°54' E 009°09'0 0.0
2017-Apr-21 22:30N 53°54' E 009°09'0 0.0
2017-Apr-21 22:00N 53°54' E 009°09'0 0.0
2017-Apr-21 21:27N 53°54' E 009°09'0 0.0
2017-Apr-21 21:00N 53°54' E 009°09'0 0.0
2017-Apr-21 20:30N 53°54' E 009°09'0 0.0
2017-Apr-21 20:00N 53°54' E 009°09'0 0.0
2017-Apr-21 19:30N 53°54' E 009°09'0 0.0
2017-Apr-21 19:00N 53°54' E 009°09'0 0.0
2017-Apr-21 18:30N 53°54' E 009°09'0 0.0
2017-Apr-21 18:00N 53°54' E 009°09'0 0.0
2017-Apr-21 17:30N 53°54' E 009°09'0 0.0
2017-Apr-21 17:00N 53°54' E 009°09'1 1.5
2017-Apr-21 16:30N 53°53' E 009°09'4 8.1
2017-Apr-21 16:01N 53°52' E 009°02'4 7.1
2017-Apr-21 15:31N 53°51' E 008°57'4 7.2
2017-Apr-21 15:00N 53°50' E 008°51'3 6.5
2017-Apr-21 14:31N 53°51' E 008°45'7 6.6
2017-Apr-21 13:30N 53°56' E 008°39'4 7.3
2017-Apr-21 13:00N 53°58' E 008°33'3 6.9
2017-Apr-21 12:30N 53°59' E 008°27'3 6.8
2017-Apr-21 12:00N 53°59' E 008°22'4 8.0
2017-Apr-21 11:27N 53°59' E 008°14'4 7.9
2017-Apr-21 10:58N 53°59' E 008°08'4 7.7
2017-Apr-21 10:27N 53°58' E 008°01'3 7.6
2017-Apr-21 10:00N 53°57' E 007°56'111 7.3
2017-Apr-20 18:47N 53°22' E 004°58'3 7.6
2017-Apr-20 18:27N 53°19' E 004°60'2 5.4
2017-Apr-20 18:00N 53°19' E 005°04'3 5.6
2017-Apr-20 17:30N 53°19' E 005°08'4 7.6
2017-Apr-20 17:00N 53°16' E 005°10'3 6.8
2017-Apr-20 16:30N 53°14' E 005°14'3 6.3
2017-Apr-20 16:00N 53°12' E 005°18'3 6.2
2017-Apr-20 15:30N 53°11' E 005°23'3 6.4
2017-Apr-20 15:00N 53°08' E 005°22'4 3.9
2017-Apr-20 14:00N 53°04' E 005°20'2 3.2
2017-Apr-20 13:30N 53°02' E 005°21'4 7.5
2017-Apr-20 13:00N 52°59' E 005°19'4 8.3
2017-Apr-20 12:30N 52°55' E 005°19'4 7.6
2017-Apr-20 12:00N 52°51' E 005°19'4 7.2
2017-Apr-20 11:30N 52°47' E 005°20'4 7.1
2017-Apr-20 11:00N 52°44' E 005°23'4 7.9
2017-Apr-20 10:30N 52°42' E 005°28'4 7.7
2017-Apr-20 10:00N 52°39' E 005°33'4 7.4
2017-Apr-20 09:30N 52°37' E 005°37'2 4.9
2017-Apr-20 09:00N 52°36' E 005°41'3 6.8
2017-Apr-20 08:30N 52°35' E 005°47'3 6.6
2017-Apr-20 08:00N 52°35' E 005°52'2 4.4
2017-Apr-20 07:30N 52°34' E 005°55'0 0.0
2017-Apr-20 07:00N 52°34' E 005°55'0 0.0
2017-Apr-20 06:30N 52°34' E 005°55'0 0.0
2017-Apr-20 06:00N 52°34' E 005°55'0 0.0
2017-Apr-20 05:31N 52°34' E 005°55'0 0.0
2017-Apr-20 05:00N 52°34' E 005°55'0 0.0
2017-Apr-20 04:30N 52°34' E 005°55'0 0.0
2017-Apr-20 04:01N 52°34' E 005°55'0 0.0
2017-Apr-20 03:30N 52°34' E 005°55'0 0.0
2017-Apr-20 03:00N 52°34' E 005°55'0 0.0
2017-Apr-20 02:30N 52°34' E 005°55'0 0.0
2017-Apr-20 02:00N 52°34' E 005°55'0 0.0
2017-Apr-20 01:30N 52°34' E 005°55'0 0.0
2017-Apr-20 01:00N 52°34' E 005°55'0 0.0
2017-Apr-20 00:30N 52°34' E 005°55'0 0.0
2017-Apr-20 00:00N 52°34' E 005°55'0 0.0
2017-Apr-19 23:30N 52°34' E 005°55'0 0.0
2017-Apr-19 23:00N 52°34' E 005°55'0 0.0
2017-Apr-19 22:30N 52°34' E 005°55'0 0.0
2017-Apr-19 22:00N 52°34' E 005°55'0 0.0
2017-Apr-19 21:30N 52°34' E 005°55'0 0.0
2017-Apr-19 21:00N 52°34' E 005°55'0 0.0
2017-Apr-19 20:30N 52°34' E 005°55'0 0.0
2017-Apr-19 20:00N 52°34' E 005°55'0 0.0
2017-Apr-19 19:30N 52°34' E 005°55'0 0.0
2017-Apr-19 19:00N 52°34' E 005°55'0 0.0
2017-Apr-19 18:30N 52°34' E 005°55'0 0.0
2017-Apr-19 18:00N 52°34' E 005°55'0 0.0
2017-Apr-19 17:30N 52°34' E 005°55'0 0.0
2017-Apr-19 17:00N 52°34' E 005°55'0 0.0
2017-Apr-19 16:30N 52°34' E 005°55'0 0.0
2017-Apr-19 16:00N 52°34' E 005°55'0 0.0
2017-Apr-19 15:30N 52°34' E 005°55'0 0.0
2017-Apr-19 15:00N 52°34' E 005°55'0 0.0
2017-Apr-19 14:30N 52°34' E 005°55'0 0.0
2017-Apr-19 13:30N 52°34' E 005°55'0 0.0
2017-Apr-19 13:00N 52°34' E 005°55'0 0.0
2017-Apr-19 12:30N 52°34' E 005°55'0 0.0
2017-Apr-19 12:00N 52°34' E 005°55'0 0.0
2017-Apr-19 11:30N 52°34' E 005°55'0 0.0
2017-Apr-19 11:00N 52°34' E 005°55'0 0.0
2017-Apr-19 10:30N 52°34' E 005°55'0 0.0
2017-Apr-19 10:00N 52°34' E 005°55'0 0.0
2017-Apr-19 09:30N 52°34' E 005°55'0 0.0
2017-Apr-19 09:00N 52°34' E 005°55'0 0.0
2017-Apr-19 08:30N 52°34' E 005°55'0 0.0
2017-Apr-19 08:00N 52°34' E 005°55'0 0.0
2017-Apr-19 07:30N 52°34' E 005°55'0 0.0
2017-Apr-19 07:00N 52°34' E 005°55'0 0.0
2017-Apr-19 06:30N 52°34' E 005°55'0 0.0
2017-Apr-19 06:00N 52°34' E 005°55'0 0.0
2017-Apr-19 05:30N 52°34' E 005°55'0 0.0
2017-Apr-19 05:00N 52°34' E 005°55'0 0.0
2017-Apr-19 04:30N 52°34' E 005°55'0 0.0
2017-Apr-19 04:00N 52°34' E 005°55'0 0.0
2017-Apr-19 03:30N 52°34' E 005°55'0 0.0
2017-Apr-19 03:00N 52°34' E 005°55'0 0.0
2017-Apr-19 02:30N 52°34' E 005°55'0 0.0
2017-Apr-19 02:00N 52°34' E 005°55'0 0.0
2017-Apr-19 01:30N 52°34' E 005°55'0 0.0
2017-Apr-19 01:00N 52°34' E 005°55'0 0.0
2017-Apr-19 00:30N 52°34' E 005°55'0 0.0
2017-Apr-19 00:00N 52°34' E 005°55'0 0.0
2017-Apr-18 23:30N 52°34' E 005°55'0 0.0
2017-Apr-18 23:00N 52°34' E 005°55'0 0.0
2017-Apr-18 22:30N 52°34' E 005°55'0 0.0
2017-Apr-18 22:00N 52°34' E 005°55'0 0.0
2017-Apr-18 21:30N 52°34' E 005°55'0 0.0
2017-Apr-18 21:00N 52°34' E 005°55'0 0.0
2017-Apr-18 20:30N 52°34' E 005°55'0 0.0
2017-Apr-18 20:00N 52°34' E 005°55'0 0.0
2017-Apr-18 19:30N 52°34' E 005°55'0 0.0
2017-Apr-18 19:00N 52°34' E 005°55'0 0.0
2017-Apr-18 18:30N 52°34' E 005°55'0 0.0
2017-Apr-18 18:00N 52°34' E 005°55'0 0.0
2017-Apr-18 17:30N 52°34' E 005°55'0 0.0
2017-Apr-18 17:00N 52°34' E 005°55'0 0.0
2017-Apr-18 16:30N 52°34' E 005°55'0 0.0
2017-Apr-18 16:00N 52°34' E 005°55'0 0.0
2017-Apr-18 15:30N 52°34' E 005°55'0 0.0
2017-Apr-18 15:00N 52°34' E 005°55'0 0.0
2017-Apr-18 14:30N 52°34' E 005°55'0 0.0
2017-Apr-18 13:30N 52°34' E 005°55'0 0.0
2017-Apr-18 13:00N 52°34' E 005°55'0 0.0
2017-Apr-18 12:30N 52°34' E 005°55'0 0.0
2017-Apr-18 12:00N 52°34' E 005°55'0 0.0
2017-Apr-18 11:30N 52°34' E 005°55'0 0.0
2017-Apr-18 11:00N 52°34' E 005°55'0 0.0
2017-Apr-18 10:30N 52°34' E 005°55'0 0.0
2017-Apr-18 10:00N 52°34' E 005°55'0 0.0
2017-Apr-18 09:30N 52°34' E 005°55'0 0.0
2017-Apr-18 09:00N 52°34' E 005°55'0 0.0
2017-Apr-18 08:30N 52°34' E 005°55'0 0.0
2017-Apr-18 08:00N 52°34' E 005°55'0 0.0
2017-Apr-18 07:30N 52°34' E 005°55'0 0.0
2017-Apr-18 07:00N 52°34' E 005°55'0 0.0
2017-Apr-18 06:30N 52°34' E 005°55'0 0.0
2017-Apr-18 06:00N 52°34' E 005°55'0 0.0
2017-Apr-18 05:30N 52°34' E 005°55'0 0.0
2017-Apr-18 05:00N 52°34' E 005°55'0 0.0
2017-Apr-18 04:30N 52°34' E 005°55'0 0.0
2017-Apr-18 04:01N 52°34' E 005°55'0 0.0
2017-Apr-18 03:30N 52°34' E 005°55'0 0.0
2017-Apr-18 03:00N 52°34' E 005°55'0 0.0
2017-Apr-18 02:30N 52°34' E 005°55'0 0.0
2017-Apr-18 02:00N 52°34' E 005°55'0 0.0
2017-Apr-18 01:30N 52°34' E 005°55'0 0.0
2017-Apr-18 01:00N 52°34' E 005°55'0 0.0
2017-Apr-18 00:30N 52°34' E 005°55'0 0.0
2017-Apr-18 00:00N 52°34' E 005°55'0 0.0
2017-Apr-17 23:30N 52°34' E 005°55'0 0.0
2017-Apr-17 23:00N 52°34' E 005°55'0 0.0
2017-Apr-17 22:30N 52°34' E 005°55'0 0.0
2017-Apr-17 22:00N 52°34' E 005°55'0 0.0
2017-Apr-17 21:30N 52°34' E 005°55'0 0.0
2017-Apr-17 21:00N 52°34' E 005°55'0 0.0
2017-Apr-17 20:30N 52°34' E 005°55'0 0.0
2017-Apr-17 20:00N 52°34' E 005°55'0 0.0
2017-Apr-17 19:30N 52°34' E 005°55'0 0.0
2017-Apr-17 19:01N 52°34' E 005°55'0 0.0
2017-Apr-17 18:30N 52°34' E 005°55'0 0.0
2017-Apr-17 18:00N 52°34' E 005°55'0 0.0
2017-Apr-17 17:31N 52°34' E 005°55'0 0.0
2017-Apr-17 17:00N 52°34' E 005°55'0 0.0
2017-Apr-17 16:30N 52°34' E 005°55'0 0.0
2017-Apr-17 16:00N 52°34' E 005°55'0 0.0
2017-Apr-17 15:30N 52°34' E 005°55'0 0.0
2017-Apr-17 15:00N 52°34' E 005°55'0 0.0
2017-Apr-17 14:30N 52°34' E 005°55'0 0.0
2017-Apr-17 13:30N 52°34' E 005°55'0 0.0
2017-Apr-17 13:01N 52°34' E 005°55'0 0.0
2017-Apr-17 12:30N 52°34' E 005°55'0 0.0
2017-Apr-17 12:00N 52°34' E 005°55'0 0.0
2017-Apr-17 11:30N 52°34' E 005°55'0 0.0
2017-Apr-17 11:00N 52°34' E 005°55'0 0.0
2017-Apr-17 10:30N 52°34' E 005°55'0 0.0
2017-Apr-17 10:00N 52°34' E 005°55'0 0.0
2017-Apr-17 09:30N 52°34' E 005°55'0 0.0
2017-Apr-17 09:00N 52°34' E 005°55'0 0.0
2017-Apr-17 08:30N 52°34' E 005°55'0 0.0
2017-Apr-17 08:00N 52°34' E 005°55'0 0.0
2017-Apr-17 07:30N 52°34' E 005°55'0 0.0
2017-Apr-17 07:01N 52°34' E 005°55'0 0.0
2017-Apr-17 06:30N 52°34' E 005°55'0 0.0
2017-Apr-17 06:00N 52°34' E 005°55'0 0.0
2017-Apr-17 05:30N 52°34' E 005°55'0 0.0
2017-Apr-17 05:00N 52°34' E 005°55'0 0.0
2017-Apr-17 04:30N 52°34' E 005°55'0 0.0
2017-Apr-17 04:00N 52°34' E 005°55'0 0.0
2017-Apr-17 03:30N 52°34' E 005°55'0 0.0
2017-Apr-17 03:00N 52°34' E 005°55'0 0.0
2017-Apr-17 02:30N 52°34' E 005°55'0 0.0
2017-Apr-17 02:00N 52°34' E 005°55'0 0.0
2017-Apr-17 01:30N 52°34' E 005°55'0 0.0
2017-Apr-17 01:00N 52°34' E 005°55'0 0.0
2017-Apr-17 00:30N 52°34' E 005°55'0 0.0
2017-Apr-17 00:00N 52°34' E 005°55'0 0.0
2017-Apr-16 23:30N 52°34' E 005°55'0 0.0
2017-Apr-16 23:00N 52°34' E 005°55'0 0.0
2017-Apr-16 22:30N 52°34' E 005°55'0 0.0
2017-Apr-16 22:00N 52°34' E 005°55'0 0.0
2017-Apr-16 21:30N 52°34' E 005°55'0 0.0
2017-Apr-16 21:00N 52°34' E 005°55'0 0.0
2017-Apr-16 20:30N 52°34' E 005°55'0 0.0
2017-Apr-16 20:00N 52°34' E 005°55'0 0.0
2017-Apr-16 19:30N 52°34' E 005°55'0 0.0
2017-Apr-16 19:01N 52°34' E 005°55'0 0.0
2017-Apr-16 18:30N 52°34' E 005°55'0 0.0
2017-Apr-16 18:00N 52°34' E 005°55'0 0.0
2017-Apr-16 17:30N 52°34' E 005°55'0 0.0
2017-Apr-16 17:00N 52°34' E 005°55'0 0.0
2017-Apr-16 16:30N 52°34' E 005°55'0 0.0
2017-Apr-16 16:00N 52°34' E 005°55'0 0.0
2017-Apr-16 15:30N 52°34' E 005°55'0 0.0
2017-Apr-16 15:00N 52°34' E 005°55'0 0.0
2017-Apr-16 14:00N 52°34' E 005°55'0 0.0
2017-Apr-16 13:30N 52°34' E 005°55'0 0.0
2017-Apr-16 13:00N 52°34' E 005°55'0 0.0
2017-Apr-16 12:30N 52°34' E 005°55'0 0.0
2017-Apr-16 12:00N 52°34' E 005°55'0 0.0
2017-Apr-16 11:30N 52°34' E 005°55'0 0.0
2017-Apr-16 11:00N 52°34' E 005°55'0 0.0
2017-Apr-16 10:30N 52°34' E 005°55'0 0.0
2017-Apr-16 10:00N 52°34' E 005°55'0 0.0
2017-Apr-16 09:30N 52°34' E 005°55'0 0.0
2017-Apr-16 09:00N 52°34' E 005°55'0 0.0
2017-Apr-16 08:30N 52°34' E 005°55'0 0.0
2017-Apr-16 08:00N 52°34' E 005°55'0 0.0
2017-Apr-16 07:30N 52°34' E 005°55'0 0.0
2017-Apr-16 07:00N 52°34' E 005°55'0 0.0
2017-Apr-16 06:30N 52°34' E 005°55'0 0.0
2017-Apr-16 06:00N 52°34' E 005°55'0 0.0
2017-Apr-16 05:30N 52°34' E 005°55'0 0.0
2017-Apr-16 05:00N 52°34' E 005°55'0 0.0
2017-Apr-16 04:30N 52°34' E 005°55'0 0.0
2017-Apr-16 04:00N 52°34' E 005°55'0 0.0
2017-Apr-16 03:30N 52°34' E 005°55'0 0.0
2017-Apr-16 03:00N 52°34' E 005°55'0 0.0
2017-Apr-16 02:30N 52°34' E 005°55'0 0.0
2017-Apr-16 02:01N 52°34' E 005°55'0 0.0
2017-Apr-16 01:30N 52°34' E 005°55'0 0.0
2017-Apr-16 01:00N 52°34' E 005°55'0 0.0
2017-Apr-16 00:30N 52°34' E 005°55'0 0.0
2017-Apr-16 00:00N 52°34' E 005°55'0 0.0
2017-Apr-15 23:31N 52°34' E 005°55'0 0.0
2017-Apr-15 23:00N 52°34' E 005°55'0 0.0
2017-Apr-15 22:30N 52°34' E 005°55'0 0.0
2017-Apr-15 22:00N 52°34' E 005°55'0 0.0
2017-Apr-15 21:30N 52°34' E 005°55'0 0.0
2017-Apr-15 21:00N 52°34' E 005°55'0 0.0
2017-Apr-15 20:30N 52°34' E 005°55'0 0.0
2017-Apr-15 20:00N 52°34' E 005°55'0 0.0
2017-Apr-15 19:30N 52°34' E 005°55'0 0.0
2017-Apr-15 19:00N 52°34' E 005°55'0 0.0
2017-Apr-15 18:30N 52°34' E 005°55'0 0.0
2017-Apr-15 18:00N 52°34' E 005°55'0 0.0
2017-Apr-15 17:30N 52°34' E 005°55'0 0.0
2017-Apr-15 17:00N 52°34' E 005°55'0 0.0
2017-Apr-15 16:30N 52°34' E 005°55'0 0.0
2017-Apr-15 16:00N 52°34' E 005°55'0 0.0
2017-Apr-15 15:30N 52°34' E 005°55'0 0.0
2017-Apr-15 15:00N 52°34' E 005°55'0 0.0
2017-Apr-15 14:30N 52°34' E 005°55'0 0.0
2017-Apr-15 13:30N 52°34' E 005°55'0 0.0
2017-Apr-15 13:01N 52°34' E 005°55'0 0.0
2017-Apr-15 12:30N 52°34' E 005°55'0 0.0
2017-Apr-15 12:00N 52°34' E 005°55'0 0.0
2017-Apr-15 11:30N 52°34' E 005°55'0 0.0
2017-Apr-15 11:00N 52°34' E 005°55'0 0.0
2017-Apr-15 10:30N 52°34' E 005°55'0 0.0
2017-Apr-15 10:00N 52°34' E 005°55'0 0.0
2017-Apr-15 09:30N 52°34' E 005°55'0 0.0
2017-Apr-15 09:00N 52°34' E 005°55'0 0.0
2017-Apr-15 08:30N 52°34' E 005°55'0 0.0
2017-Apr-15 08:00N 52°34' E 005°55'0 0.0
2017-Apr-15 07:30N 52°34' E 005°55'0 0.0
2017-Apr-15 07:00N 52°34' E 005°55'0 0.0
2017-Apr-15 06:30N 52°34' E 005°55'0 0.0
2017-Apr-15 06:00N 52°34' E 005°55'0 0.0
2017-Apr-15 05:30N 52°34' E 005°55'0 0.0
2017-Apr-15 05:00N 52°34' E 005°55'0 0.0
2017-Apr-15 04:30N 52°34' E 005°55'0 0.0
2017-Apr-15 04:00N 52°34' E 005°55'0 0.0
2017-Apr-15 03:30N 52°34' E 005°55'0 0.0
2017-Apr-15 03:00N 52°34' E 005°55'0 0.0
2017-Apr-15 02:30N 52°34' E 005°55'0 0.0
2017-Apr-15 02:00N 52°34' E 005°55'0 0.0
2017-Apr-15 01:30N 52°34' E 005°55'0 0.0
2017-Apr-15 01:00N 52°34' E 005°55'0 0.0
2017-Apr-15 00:30N 52°34' E 005°55'0 0.0
2017-Apr-15 00:00N 52°34' E 005°55'0 0.0
2017-Apr-14 23:30N 52°34' E 005°55'0 0.0
2017-Apr-14 23:00N 52°34' E 005°55'0 0.0
2017-Apr-14 22:30N 52°34' E 005°55'0 0.0
2017-Apr-14 22:00N 52°34' E 005°55'0 0.0
2017-Apr-14 21:30N 52°34' E 005°55'0 0.0
2017-Apr-14 21:00N 52°34' E 005°55'0 0.0
2017-Apr-14 20:30N 52°34' E 005°55'0 0.0
2017-Apr-14 20:00N 52°34' E 005°55'0 0.0
2017-Apr-14 19:30N 52°34' E 005°55'0 0.0
2017-Apr-14 19:00N 52°34' E 005°55'0 0.0
2017-Apr-14 18:30N 52°34' E 005°55'0 0.0
2017-Apr-14 18:00N 52°34' E 005°55'0 0.0
2017-Apr-14 17:30N 52°34' E 005°55'0 0.0
2017-Apr-14 17:00N 52°34' E 005°55'0 0.0
2017-Apr-14 16:30N 52°34' E 005°55'0 0.0
2017-Apr-14 16:00N 52°34' E 005°55'0 0.0
2017-Apr-14 15:30N 52°34' E 005°55'0 0.0
2017-Apr-14 15:00N 52°34' E 005°55'0 0.0
2017-Apr-14 14:30N 52°34' E 005°55'0 0.0
2017-Apr-14 13:30N 52°34' E 005°55'0 0.0
2017-Apr-14 13:00N 52°34' E 005°55'0 0.0
2017-Apr-14 12:30N 52°34' E 005°55'0 0.0
2017-Apr-14 12:00N 52°34' E 005°55'0 0.0
2017-Apr-14 11:30N 52°34' E 005°55'0 0.1
2017-Apr-14 11:00N 52°34' E 005°55'0 0.0
2017-Apr-14 10:30N 52°34' E 005°55'0 0.0
2017-Apr-14 10:00N 52°34' E 005°55'0 0.0
2017-Apr-14 09:30N 52°34' E 005°55'0 0.0
2017-Apr-14 09:00N 52°34' E 005°55'0 0.0
2017-Apr-14 08:30N 52°34' E 005°55'0 0.0
2017-Apr-14 08:01N 52°34' E 005°55'0 0.0
2017-Apr-14 07:30N 52°34' E 005°55'0 0.0
2017-Apr-14 07:00N 52°34' E 005°55'0 0.0
2017-Apr-14 06:30N 52°34' E 005°55'0 0.0
2017-Apr-14 06:01N 52°34' E 005°55'0 0.0
2017-Apr-14 05:31N 52°34' E 005°55'0 0.0
2017-Apr-14 05:00N 52°34' E 005°55'0 0.0
2017-Apr-14 04:31N 52°34' E 005°55'0 0.0
2017-Apr-14 04:00N 52°34' E 005°55'0 0.0
2017-Apr-14 03:30N 52°34' E 005°55'0 0.0
2017-Apr-14 03:00N 52°34' E 005°55'0 0.0
2017-Apr-14 02:30N 52°34' E 005°55'0 0.0
2017-Apr-14 02:00N 52°34' E 005°55'0 0.0
2017-Apr-14 01:30N 52°34' E 005°55'0 0.0
2017-Apr-14 01:00N 52°34' E 005°55'0 0.0
2017-Apr-14 00:30N 52°34' E 005°55'0 0.0
2017-Apr-14 00:00N 52°34' E 005°55'0 0.0
2017-Apr-13 23:30N 52°34' E 005°55'0 0.0
2017-Apr-13 23:00N 52°34' E 005°55'0 0.0
2017-Apr-13 22:30N 52°34' E 005°55'0 0.0
2017-Apr-13 22:00N 52°34' E 005°55'0 0.0
2017-Apr-13 21:30N 52°34' E 005°55'0 0.0
2017-Apr-13 21:00N 52°34' E 005°55'0 0.0
2017-Apr-13 20:30N 52°34' E 005°55'0 0.0
2017-Apr-13 20:00N 52°34' E 005°55'0 0.0
2017-Apr-13 19:30N 52°34' E 005°55'0 0.0
2017-Apr-13 19:00N 52°34' E 005°55'0 0.0
2017-Apr-13 18:30N 52°34' E 005°55'0 0.0
2017-Apr-13 18:00N 52°34' E 005°55'0 0.0
2017-Apr-13 17:30N 52°34' E 005°55'0 0.0
2017-Apr-13 17:00N 52°34' E 005°55'0 0.0
2017-Apr-13 16:30N 52°34' E 005°55'0 0.0
2017-Apr-13 16:00N 52°34' E 005°55'0 0.0
2017-Apr-13 15:30N 52°34' E 005°55'0 0.0
2017-Apr-13 15:00N 52°34' E 005°55'0 0.0
2017-Apr-13 14:00N 52°34' E 005°55'0 0.0
2017-Apr-13 13:30N 52°34' E 005°55'0 0.0
2017-Apr-13 13:00N 52°34' E 005°55'0 0.0
2017-Apr-13 12:30N 52°34' E 005°55'0 0.0
2017-Apr-13 12:00N 52°34' E 005°55'0 0.0
2017-Apr-13 11:30N 52°34' E 005°55'0 0.0
2017-Apr-13 11:00N 52°34' E 005°55'0 0.0
2017-Apr-13 10:30N 52°34' E 005°55'0 0.0
2017-Apr-13 10:00N 52°34' E 005°55'0 0.0
2017-Apr-13 09:31N 52°34' E 005°55'0 0.0
2017-Apr-13 09:00N 52°34' E 005°55'0 0.0
2017-Apr-13 08:30N 52°34' E 005°55'0 0.0
2017-Apr-13 08:00N 52°34' E 005°55'0 0.0
2017-Apr-13 07:30N 52°34' E 005°55'0 0.0
2017-Apr-13 07:00N 52°34' E 005°55'0 0.0
2017-Apr-13 06:30N 52°34' E 005°55'0 0.0
2017-Apr-13 06:00N 52°34' E 005°55'0 0.0
2017-Apr-13 05:30N 52°34' E 005°55'0 0.0
2017-Apr-13 05:00N 52°34' E 005°55'0 0.0
2017-Apr-13 04:30N 52°34' E 005°55'0 0.0
2017-Apr-13 04:00N 52°34' E 005°55'0 0.0
2017-Apr-13 03:30N 52°34' E 005°55'0 0.0
2017-Apr-13 03:00N 52°34' E 005°55'0 0.0
2017-Apr-13 02:30N 52°34' E 005°55'0 0.0
2017-Apr-13 02:00N 52°34' E 005°55'0 0.0
2017-Apr-13 01:30N 52°34' E 005°55'0 0.0
2017-Apr-13 01:00N 52°34' E 005°55'0 0.0
2017-Apr-13 00:30N 52°34' E 005°55'0 0.0
2017-Apr-13 00:00N 52°34' E 005°55'0 0.0
2017-Apr-12 23:30N 52°34' E 005°55'0 0.0
2017-Apr-12 23:00N 52°34' E 005°55'0 0.0
2017-Apr-12 22:30N 52°34' E 005°55'0 0.0
2017-Apr-12 22:00N 52°34' E 005°55'0 0.0
2017-Apr-12 21:31N 52°34' E 005°55'0 0.0
2017-Apr-12 21:00N 52°34' E 005°55'0 0.0
2017-Apr-12 20:30N 52°34' E 005°55'0 0.0
2017-Apr-12 20:00N 52°34' E 005°55'0 0.0
2017-Apr-12 19:30N 52°34' E 005°55'0 0.0
2017-Apr-12 19:00N 52°34' E 005°55'0 0.0
2017-Apr-12 18:30N 52°34' E 005°55'0 0.0
2017-Apr-12 18:00N 52°34' E 005°55'0 0.0
2017-Apr-12 17:30N 52°34' E 005°55'0 0.0
2017-Apr-12 17:00N 52°34' E 005°55'0 0.0
2017-Apr-12 16:30N 52°34' E 005°55'0 0.0
2017-Apr-12 16:00N 52°34' E 005°55'0 0.0
2017-Apr-12 15:30N 52°34' E 005°55'0 0.0
2017-Apr-12 15:00N 52°34' E 005°55'0 0.0
2017-Apr-12 14:30N 52°34' E 005°55'0 0.0
2017-Apr-12 13:31N 52°34' E 005°55'0 0.0
2017-Apr-12 13:00N 52°34' E 005°55'0 0.0
2017-Apr-12 12:31N 52°34' E 005°55'0 0.0
2017-Apr-12 12:00N 52°34' E 005°55'0 0.0
2017-Apr-12 11:30N 52°34' E 005°55'0 0.0
2017-Apr-12 11:00N 52°34' E 005°55'0 0.0
2017-Apr-12 10:30N 52°34' E 005°55'0 0.0
2017-Apr-12 10:01N 52°34' E 005°55'0 0.0
2017-Apr-12 09:30N 52°34' E 005°55'0 0.0
2017-Apr-12 09:00N 52°34' E 005°55'  

Dump ship's entire track history